Terminal Aerodrome Forecast
Issued by NWS

Current Version | Previous Version | Graphics & Text | Print | Product List | Glossary On
Versions: 1 2 3 4 5 6 7 8 9 10 11 12 13 14 15 16 17 18 19 20 21 22 23 24 25 26 27 28 29
000
FTUS41 KILN 261400 AAA
TAFLUK
TAF AMD
KLUK 261419Z 2614/2712 20010KT 3SM -TSRA SCT045CB OVC080
     FM261515 22010KT P6SM SCT040 BKN250
     FM270200 22004KT P6SM VCTS BKN040CB OVC150
      TEMPO 2704/2707 2SM -TSRA OVC020CB
     FM270900 20004KT P6SM BKN100=

USA.gov is the U.S. government's official web portal to all federal, state and local government web resources and services.